Time;durP1;ratioP1;P1;durP2;ratioP2;P2;SDS_P1;SDS_P2;PMS_P1;PMS_P2;Temp;Humidity;BMP_temperature;BMP_pressure;BME280_temperature;BME280_humidity;BME280_pressure;Samples;Min_cycle;Max_cycle;Signal;HPM_P1;HPM_P2
2022/01/03 00:00:13;;;;;;;13.15;8.52;;;18.40;66.90;;;;;;5025380;28;20041;-63
2022/01/03 00:02:39;;;;;;;14.18;9.05;;;18.30;66.80;;;;;;5046011;28;20115;-63
2022/01/03 00:05:05;;;;;;;14.20;8.32;;;18.30;66.80;;;;;;5046319;28;20031;-63
2022/01/03 00:07:32;;;;;;;15.52;9.38;;;18.40;66.80;;;;;;5046299;28;20029;-63
2022/01/03 00:09:57;;;;;;;13.20;8.63;;;18.30;66.70;;;;;;5045760;28;20501;-63
2022/01/03 00:12:23;;;;;;;12.82;7.47;;;18.30;66.80;;;;;;5045557;28;20025;-64
2022/01/03 00:14:49;;;;;;;15.43;7.75;;;18.30;66.80;;;;;;5044368;28;20055;-63
2022/01/03 00:17:14;;;;;;;11.15;7.55;;;18.40;66.70;;;;;;5046432;28;20049;-63
2022/01/03 00:19:40;;;;;;;11.30;7.30;;;18.30;66.60;;;;;;5045764;28;20464;-63
2022/01/03 00:22:06;;;;;;;13.52;8.80;;;18.30;66.80;;;;;;5045835;28;20025;-64
2022/01/03 00:24:32;;;;;;;13.05;7.55;;;18.30;66.60;;;;;;5046077;28;20509;-63
2022/01/03 00:27:05;;;;;;;12.45;7.20;;;18.30;66.70;;;;;;5046334;28;20104;-63
2022/01/03 00:29:41;;;;;;;12.52;7.35;;;18.30;66.60;;;;;;5044130;28;20033;-62
2022/01/03 00:32:06;;;;;;;12.90;6.85;;;18.30;66.60;;;;;;5036805;28;20128;-63
2022/01/03 00:34:32;;;;;;;12.52;8.07;;;18.30;66.60;;;;;;5043952;28;20125;-62
2022/01/03 00:36:58;;;;;;;12.13;8.15;;;18.30;66.60;;;;;;5044133;28;20463;-63
2022/01/03 00:39:23;;;;;;;11.45;7.63;;;18.30;66.40;;;;;;5027366;28;20489;-63
2022/01/03 00:41:49;;;;;;;12.60;7.28;;;18.30;66.70;;;;;;5044856;28;20037;-63
2022/01/03 00:44:15;;;;;;;12.23;6.25;;;18.30;66.50;;;;;;5045167;28;20674;-63
2022/01/03 00:46:42;;;;;;;10.63;6.93;;;18.30;66.50;;;;;;5046210;28;20048;-63
2022/01/03 00:49:07;;;;;;;9.60;6.60;;;18.30;66.50;;;;;;5045444;28;20033;-63
2022/01/03 00:51:34;;;;;;;9.07;6.05;;;18.30;66.40;;;;;;5045413;28;20032;-63
2022/01/03 00:53:59;;;;;;;10.13;6.13;;;18.30;66.40;;;;;;5045059;28;20037;-62
2022/01/03 00:56:29;;;;;;;9.82;5.88;;;18.30;66.50;;;;;;5044629;28;20124;-64
2022/01/03 00:59:00;;;;;;;9.82;6.53;;;18.30;66.40;;;;;;5044476;28;20429;-63
2022/01/03 01:01:25;;;;;;;10.43;6.32;;;18.30;66.40;;;;;;5044356;28;20533;-63
2022/01/03 01:03:55;;;;;;;12.55;6.65;;;18.30;66.30;;;;;;5043021;28;20040;-62
2022/01/03 01:06:21;;;;;;;10.30;5.97;;;18.30;66.30;;;;;;5045621;28;20040;-62
2022/01/03 01:08:47;;;;;;;11.63;6.30;;;18.30;66.30;;;;;;5044829;28;20060;-59
2022/01/03 01:11:13;;;;;;;8.50;6.15;;;18.30;66.30;;;;;;5045319;28;20033;-62
2022/01/03 01:13:41;;;;;;;8.95;6.55;;;18.40;66.40;;;;;;5043612;28;20037;-63
2022/01/03 01:16:07;;;;;;;10.35;5.85;;;18.40;66.30;;;;;;5045138;28;20597;-63
2022/01/03 01:18:36;;;;;;;8.70;5.53;;;18.30;66.30;;;;;;5044759;28;20029;-63
2022/01/03 01:21:05;;;;;;;9.13;5.47;;;18.30;66.30;;;;;;5044572;28;20037;-62
2022/01/03 01:23:31;;;;;;;8.82;5.13;;;18.30;66.20;;;;;;5021135;28;20029;-63
2022/01/03 01:28:40;;;;;;;7.07;5.05;;;18.30;66.20;;;;;;5027538;28;20524;-62
2022/01/03 01:31:06;;;;;;;8.88;5.60;;;18.30;66.10;;;;;;5048142;28;20029;-63
2022/01/03 01:33:31;;;;;;;7.57;5.13;;;18.30;66.20;;;;;;5026828;28;20037;-61
2022/01/03 01:35:58;;;;;;;6.80;4.53;;;18.30;66.10;;;;;;5035276;28;20064;-62
2022/01/03 01:38:24;;;;;;;7.32;5.07;;;18.30;66.10;;;;;;5044170;28;20036;-61
2022/01/03 01:40:54;;;;;;;6.78;4.00;;;18.30;66.10;;;;;;5041682;28;20037;-58
2022/01/03 01:43:33;;;;;;;8.63;4.82;;;18.30;66.10;;;;;;5037747;28;20033;-63
2022/01/03 01:45:59;;;;;;;8.32;4.47;;;18.30;66.10;;;;;;5044574;28;20497;-63
2022/01/03 01:48:24;;;;;;;8.20;4.07;;;18.30;66.10;;;;;;5036749;28;20040;-62
2022/01/03 01:50:50;;;;;;;6.13;4.60;;;18.30;66.10;;;;;;5044178;28;20029;-62
2022/01/03 01:53:24;;;;;;;5.97;4.45;;;18.30;66.00;;;;;;5044684;28;20036;-62
2022/01/03 01:55:51;;;;;;;6.13;4.22;;;18.30;66.00;;;;;;5043202;28;20036;-60
2022/01/03 01:58:37;;;;;;;8.23;4.60;;;18.30;66.00;;;;;;5044135;28;20122;-63
2022/01/03 02:01:06;;;;;;;7.28;4.32;;;18.30;66.00;;;;;;5040209;28;20025;-63
2022/01/03 02:03:50;;;;;;;5.53;3.85;;;18.30;66.00;;;;;;5043502;28;20116;-63
2022/01/03 02:06:45;;;;;;;6.00;3.75;;;18.30;66.00;;;;;;5043937;28;20049;-62
2022/01/03 02:09:34;;;;;;;5.55;3.30;;;18.30;65.90;;;;;;5043275;28;20032;-62
2022/01/03 02:11:59;;;;;;;5.78;4.00;;;18.30;65.90;;;;;;5040959;28;20488;-63
2022/01/03 02:14:26;;;;;;;5.60;3.47;;;18.30;65.80;;;;;;5024595;28;20409;-63
2022/01/03 02:16:52;;;;;;;6.50;4.60;;;18.30;65.90;;;;;;5043895;28;20171;-62
2022/01/03 02:19:19;;;;;;;7.40;4.43;;;18.30;65.80;;;;;;5041826;28;20144;-62
2022/01/03 02:21:45;;;;;;;6.57;4.30;;;18.30;65.90;;;;;;5043306;28;20025;-61
2022/01/03 02:24:11;;;;;;;5.45;3.60;;;18.30;65.80;;;;;;5042188;28;20048;-63
2022/01/03 02:26:37;;;;;;;7.43;3.70;;;18.30;65.70;;;;;;5042300;28;20021;-62
2022/01/03 02:29:03;;;;;;;5.47;3.33;;;18.30;65.70;;;;;;5042954;28;20409;-61
2022/01/03 02:31:28;;;;;;;5.90;3.75;;;18.30;65.70;;;;;;5043838;28;20037;-62
2022/01/03 02:33:54;;;;;;;4.80;3.38;;;18.30;65.70;;;;;;5043011;28;20098;-57
2022/01/03 02:36:20;;;;;;;5.57;3.70;;;18.30;65.70;;;;;;5043940;28;20622;-63
2022/01/03 02:38:45;;;;;;;7.00;3.28;;;18.30;65.70;;;;;;5025531;28;20040;-63
2022/01/03 02:41:11;;;;;;;6.05;3.00;;;18.30;65.70;;;;;;5044139;28;20033;-63
2022/01/03 02:43:36;;;;;;;4.72;3.33;;;18.30;65.70;;;;;;5043515;28;20055;-62
2022/01/03 02:46:02;;;;;;;6.63;3.42;;;18.30;65.60;;;;;;5043352;28;20036;-62
2022/01/03 02:48:28;;;;;;;5.60;3.35;;;18.30;65.70;;;;;;5041600;28;20040;-63
2022/01/03 02:50:53;;;;;;;6.53;3.28;;;18.20;65.60;;;;;;5042669;28;20127;-63
2022/01/03 02:53:19;;;;;;;5.70;3.17;;;18.30;65.70;;;;;;5044378;28;20040;-62
2022/01/03 02:55:44;;;;;;;3.90;2.70;;;18.30;65.60;;;;;;5043596;28;20496;-63
2022/01/03 02:58:10;;;;;;;4.50;3.38;;;18.30;65.60;;;;;;5042779;28;20025;-62
2022/01/03 03:00:50;;;;;;;5.32;3.22;;;18.20;65.50;;;;;;5042866;28;20043;-63
2022/01/03 03:03:18;;;;;;;5.88;3.33;;;18.20;65.50;;;;;;5027198;28;20049;-63
2022/01/03 03:05:43;;;;;;;4.20;2.67;;;18.20;65.50;;;;;;5043428;28;20056;-63
2022/01/03 03:08:09;;;;;;;5.72;3.03;;;18.20;65.50;;;;;;5042075;28;20068;-63
2022/01/03 03:10:34;;;;;;;5.30;2.72;;;18.20;65.60;;;;;;5042197;28;20148;-61
2022/01/03 03:13:00;;;;;;;4.30;3.03;;;18.20;65.60;;;;;;5042632;28;20033;-63
2022/01/03 03:15:26;;;;;;;4.10;2.22;;;18.20;65.50;;;;;;5043211;28;20033;-63
2022/01/03 03:17:51;;;;;;;3.47;2.80;;;18.20;65.50;;;;;;5042070;28;20119;-63
2022/01/03 03:20:21;;;;;;;3.72;2.40;;;18.20;65.50;;;;;;5042857;28;20037;-63
2022/01/03 03:22:49;;;;;;;3.33;2.67;;;18.20;65.50;;;;;;5041908;28;21542;-63
2022/01/03 03:25:20;;;;;;;4.20;2.55;;;18.20;65.50;;;;;;5043695;28;20037;-62
2022/01/03 03:27:48;;;;;;;3.53;2.67;;;18.20;65.60;;;;;;5042643;28;20025;-63
2022/01/03 03:30:14;;;;;;;3.95;2.28;;;18.20;65.60;;;;;;5042750;28;20124;-63
2022/01/03 03:32:39;;;;;;;3.50;2.60;;;18.20;65.60;;;;;;5040093;28;20048;-64
2022/01/03 03:35:05;;;;;;;3.80;2.42;;;18.20;65.60;;;;;;5040971;28;20422;-63
2022/01/03 03:37:30;;;;;;;4.50;2.55;;;18.20;65.60;;;;;;5043659;28;20029;-62
2022/01/03 03:39:56;;;;;;;3.33;1.98;;;18.20;65.60;;;;;;5043262;28;20083;-63
2022/01/03 03:42:21;;;;;;;3.80;2.25;;;18.20;65.60;;;;;;5042691;28;20051;-62
2022/01/03 03:44:47;;;;;;;3.03;2.13;;;18.20;65.60;;;;;;5043372;28;20029;-63
2022/01/03 03:47:13;;;;;;;4.40;2.63;;;18.20;65.60;;;;;;5042935;28;20052;-63
2022/01/03 03:49:38;;;;;;;4.03;2.17;;;18.20;65.60;;;;;;5043300;28;20033;-63
2022/01/03 03:52:04;;;;;;;4.40;2.10;;;18.20;65.60;;;;;;5042308;28;20040;-61
2022/01/03 03:54:30;;;;;;;3.42;1.88;;;18.20;65.50;;;;;;5043963;28;20072;-63
2022/01/03 03:56:57;;;;;;;5.13;2.58;;;18.20;65.60;;;;;;5042324;28;20052;-63
2022/01/03 03:59:22;;;;;;;3.38;2.03;;;18.20;65.50;;;;;;5042512;28;20533;-58
2022/01/03 04:01:48;;;;;;;3.10;2.33;;;18.20;65.60;;;;;;5042925;28;20036;-63
2022/01/03 04:04:13;;;;;;;3.05;2.00;;;18.20;65.50;;;;;;5042223;28;20258;-63
2022/01/03 04:06:39;;;;;;;3.95;2.00;;;18.10;65.50;;;;;;5046736;28;20389;-64
2022/01/03 04:09:04;;;;;;;3.22;1.58;;;18.10;65.40;;;;;;5042432;28;20049;-62
2022/01/03 04:11:30;;;;;;;3.40;2.30;;;18.20;65.50;;;;;;5046690;28;20032;-63
2022/01/03 04:13:56;;;;;;;3.75;2.08;;;18.10;65.50;;;;;;5046012;28;20497;-63
2022/01/03 04:16:21;;;;;;;3.42;1.80;;;18.20;65.50;;;;;;5046469;28;20037;-59
2022/01/03 04:18:47;;;;;;;4.03;2.05;;;18.10;65.40;;;;;;5046119;28;20668;-63
2022/01/03 04:21:12;;;;;;;3.10;1.50;;;18.10;65.40;;;;;;5043556;28;20029;-63
2022/01/03 04:23:38;;;;;;;4.63;1.92;;;18.10;65.30;;;;;;5046113;28;20031;-63
2022/01/03 04:26:06;;;;;;;2.60;1.73;;;18.10;65.30;;;;;;5045365;28;20440;-63
2022/01/03 04:28:32;;;;;;;3.58;1.70;;;18.10;65.30;;;;;;5045449;28;20037;-63
2022/01/03 04:30:57;;;;;;;4.68;1.77;;;18.20;65.30;;;;;;5045712;28;20515;-62
2022/01/03 04:33:23;;;;;;;3.33;1.92;;;18.20;65.30;;;;;;5045503;28;20087;-63
2022/01/03 04:35:48;;;;;;;3.17;1.58;;;18.10;65.30;;;;;;5046225;28;20028;-62
2022/01/03 04:38:14;;;;;;;2.50;1.73;;;18.20;65.30;;;;;;5046212;28;20131;-63
2022/01/03 04:40:40;;;;;;;2.85;1.73;;;18.20;65.30;;;;;;5044853;28;20440;-63
2022/01/03 04:43:05;;;;;;;2.60;1.60;;;18.20;65.30;;;;;;5045937;28;20094;-63
2022/01/03 04:45:31;;;;;;;2.28;1.50;;;18.20;65.30;;;;;;5045237;28;20426;-63
2022/01/03 04:47:56;;;;;;;2.55;1.40;;;18.10;65.30;;;;;;5045352;28;20039;-63
2022/01/03 04:50:22;;;;;;;2.85;1.30;;;18.20;65.20;;;;;;5045554;28;20029;-63
2022/01/03 04:52:47;;;;;;;3.20;1.75;;;18.20;65.20;;;;;;5046076;28;20033;-63
2022/01/03 04:55:13;;;;;;;1.55;1.05;;;18.20;65.20;;;;;;5045317;28;20029;-63
2022/01/03 04:57:38;;;;;;;2.22;1.30;;;18.20;65.20;;;;;;5044389;28;20434;-62
2022/01/03 05:00:05;;;;;;;2.22;1.35;;;18.10;65.10;;;;;;5043936;28;20031;-63
2022/01/03 05:02:31;;;;;;;2.35;1.58;;;18.10;65.10;;;;;;5044498;28;20045;-63
2022/01/03 05:04:56;;;;;;;3.13;1.50;;;18.20;65.10;;;;;;5044932;28;20122;-63
2022/01/03 05:07:22;;;;;;;3.70;1.58;;;18.20;65.00;;;;;;5045739;28;20520;-62
2022/01/03 05:09:47;;;;;;;2.08;1.42;;;18.20;65.00;;;;;;5045164;28;20021;-63
2022/01/03 05:12:13;;;;;;;3.65;1.20;;;18.20;65.00;;;;;;5044905;28;20028;-63
2022/01/03 05:14:39;;;;;;;2.08;1.30;;;18.20;64.90;;;;;;5044310;28;20533;-63
2022/01/03 05:17:05;;;;;;;1.80;1.35;;;18.20;64.90;;;;;;5044691;28;20108;-63
2022/01/03 05:19:30;;;;;;;1.48;1.10;;;18.20;64.80;;;;;;5044386;28;20033;-63
2022/01/03 05:21:56;;;;;;;2.05;1.30;;;18.20;64.80;;;;;;5044495;28;20383;-63
2022/01/03 05:24:21;;;;;;;2.38;1.50;;;18.20;64.80;;;;;;5044736;28;20047;-63
2022/01/03 05:26:47;;;;;;;2.10;1.25;;;18.20;64.80;;;;;;5045025;28;20032;-63
2022/01/03 05:29:12;;;;;;;3.25;1.50;;;18.20;64.60;;;;;;5044447;28;20111;-63
2022/01/03 05:31:38;;;;;;;2.28;1.45;;;18.20;64.60;;;;;;5042473;28;20379;-63
2022/01/03 05:34:03;;;;;;;1.88;1.30;;;18.20;64.50;;;;;;5043990;28;20021;-62
2022/01/03 05:36:29;;;;;;;2.00;1.20;;;18.30;64.60;;;;;;5045368;28;20558;-63
2022/01/03 05:38:54;;;;;;;2.38;1.50;;;18.30;64.50;;;;;;5045769;28;20116;-63
2022/01/03 05:41:20;;;;;;;2.17;1.20;;;18.30;64.40;;;;;;5047206;28;20025;-63
2022/01/03 05:43:45;;;;;;;2.20;1.10;;;18.30;64.40;;;;;;5045355;28;20037;-63
2022/01/03 05:46:12;;;;;;;2.50;0.95;;;18.30;64.30;;;;;;5044937;28;20048;-62
2022/01/03 05:48:38;;;;;;;3.30;1.50;;;18.30;64.30;;;;;;5044099;28;20041;-62
2022/01/03 05:51:03;;;;;;;2.05;1.33;;;18.30;64.20;;;;;;5044331;28;20052;-63
2022/01/03 05:53:30;;;;;;;2.38;1.17;;;18.30;64.20;;;;;;5044426;28;20029;-63
2022/01/03 05:55:59;;;;;;;2.92;1.40;;;18.30;64.20;;;;;;5044500;28;20399;-63
2022/01/03 05:58:24;;;;;;;1.42;1.10;;;18.30;64.10;;;;;;5044150;28;20722;-63
2022/01/03 06:00:50;;;;;;;1.55;1.08;;;18.30;64.10;;;;;;5044988;28;20101;-63
2022/01/03 06:03:19;;;;;;;1.42;0.93;;;18.30;64.10;;;;;;5043439;28;20032;-63
2022/01/03 06:08:22;;;;;;;2.28;1.10;;;18.30;64.10;;;;;;5044123;28;20512;-62
2022/01/03 06:10:48;;;;;;;2.17;1.33;;;18.30;64.10;;;;;;5043305;28;20037;-63
2022/01/03 06:13:14;;;;;;;2.20;1.00;;;18.30;64.10;;;;;;5042656;28;20021;-62
2022/01/03 06:15:40;;;;;;;3.90;1.23;;;18.30;64.00;;;;;;5040775;28;20037;-62
2022/01/03 06:18:10;;;;;;;2.58;0.88;;;18.30;64.00;;;;;;5042566;28;20036;-63
2022/01/03 06:20:35;;;;;;;1.88;1.13;;;18.30;64.10;;;;;;5042194;28;20040;-62
2022/01/03 06:23:00;;;;;;;1.88;0.93;;;18.30;64.10;;;;;;5043616;28;20111;-61
2022/01/03 06:25:26;;;;;;;5.07;1.63;;;18.30;64.10;;;;;;5041106;28;20465;-61
2022/01/03 06:27:51;;;;;;;2.70;1.20;;;18.30;64.10;;;;;;5043654;28;20041;-63
2022/01/03 06:30:17;;;;;;;1.52;1.05;;;18.30;64.10;;;;;;5043478;28;20028;-59
2022/01/03 06:32:42;;;;;;;3.40;1.20;;;18.30;64.10;;;;;;5040531;28;20520;-61
2022/01/03 06:35:08;;;;;;;2.55;1.27;;;18.30;64.10;;;;;;5043476;28;20075;-63
2022/01/03 06:37:33;;;;;;;4.97;1.50;;;18.30;64.10;;;;;;5043639;28;20022;-63
2022/01/03 06:39:59;;;;;;;7.30;5.03;;;18.30;64.10;;;;;;5043630;28;20025;-64
2022/01/03 06:42:25;;;;;;;10.43;8.50;;;18.30;64.10;;;;;;5043253;28;20035;-60
2022/01/03 06:44:50;;;;;;;11.45;8.55;;;18.30;64.10;;;;;;5043905;28;20032;-65
2022/01/03 06:47:17;;;;;;;9.85;8.10;;;18.30;64.10;;;;;;5043848;28;20170;-63
2022/01/03 06:49:43;;;;;;;9.70;6.93;;;18.30;64.10;;;;;;5043139;28;20033;-64
2022/01/03 06:52:08;;;;;;;9.82;7.10;;;18.30;64.10;;;;;;5043690;28;20044;-65
2022/01/03 06:54:34;;;;;;;9.82;6.88;;;18.30;64.10;;;;;;5043373;28;20043;-59
2022/01/03 06:57:00;;;;;;;11.95;7.43;;;18.30;64.10;;;;;;5041710;28;20029;-62
2022/01/03 06:59:25;;;;;;;10.15;7.50;;;18.30;64.20;;;;;;5041489;28;20041;-58
2022/01/03 07:01:51;;;;;;;10.60;8.52;;;18.30;64.50;;;;;;5043920;28;20378;-63
2022/01/03 07:04:16;;;;;;;11.43;8.05;;;18.30;64.70;;;;;;5042865;28;20516;-64
2022/01/03 07:06:42;;;;;;;11.10;8.15;;;18.30;64.90;;;;;;5043706;28;20029;-63
2022/01/03 07:09:07;;;;;;;13.13;8.30;;;18.30;65.10;;;;;;5043646;28;20029;-62
2022/01/03 07:11:33;;;;;;;10.65;8.10;;;18.30;65.30;;;;;;5042547;28;20029;-64
2022/01/03 07:19:27;;;;;;;14.90;7.63;;;18.30;65.60;;;;;;5042452;28;20032;-66
2022/01/03 07:21:52;;;;;;;14.80;7.55;;;18.30;65.70;;;;;;5041769;28;20126;-65
2022/01/03 07:24:18;;;;;;;10.43;6.60;;;18.30;65.70;;;;;;5042993;28;20664;-65
2022/01/03 07:26:43;;;;;;;9.27;6.18;;;18.30;65.60;;;;;;5042722;28;20033;-66
2022/01/03 07:29:09;;;;;;;9.98;6.85;;;18.30;65.50;;;;;;5042215;28;20032;-65
2022/01/03 07:31:34;;;;;;;9.45;5.95;;;18.30;65.40;;;;;;5042686;28;20544;-65
2022/01/03 07:34:00;;;;;;;9.07;5.75;;;18.30;65.40;;;;;;5042894;28;20024;-65
2022/01/03 07:36:27;;;;;;;8.80;6.20;;;18.30;65.40;;;;;;5042908;28;20041;-66
2022/01/03 07:38:52;;;;;;;11.80;5.90;;;18.30;65.30;;;;;;5046296;28;20029;-66
2022/01/03 07:41:18;;;;;;;7.93;5.38;;;18.30;65.30;;;;;;5046482;28;20083;-64
2022/01/03 07:43:44;;;;;;;9.70;5.72;;;18.30;65.20;;;;;;5046642;28;20492;-64
2022/01/03 07:46:09;;;;;;;12.10;5.32;;;18.30;65.20;;;;;;5046039;28;20071;-64
2022/01/03 07:48:35;;;;;;;15.80;6.38;;;18.20;65.20;;;;;;5046170;28;20040;-63
2022/01/03 07:51:00;;;;;;;18.10;7.80;;;18.20;65.50;;;;;;5044590;28;20025;-62
2022/01/03 07:53:27;;;;;;;20.55;7.60;;;18.20;65.80;;;;;;5043020;28;20860;-65
2022/01/03 07:55:52;;;;;;;27.95;10.30;;;18.20;66.10;;;;;;5047199;28;20056;-64
2022/01/03 07:58:18;;;;;;;26.63;9.15;;;18.20;66.20;;;;;;5046352;28;20033;-65
2022/01/03 08:00:44;;;;;;;21.80;9.65;;;18.20;66.40;;;;;;5045675;28;21413;-64
2022/01/03 08:03:10;;;;;;;18.92;8.27;;;18.20;66.50;;;;;;5028924;28;20688;-64
2022/01/03 08:05:35;;;;;;;16.02;8.20;;;18.20;66.10;;;;;;5046750;28;20025;-63
2022/01/03 08:08:03;;;;;;;18.48;8.10;;;18.20;65.90;;;;;;5046581;28;20028;-62
2022/01/03 08:10:28;;;;;;;24.75;8.43;;;18.20;66.20;;;;;;5046274;28;20017;-62
2022/01/03 08:12:54;;;;;;;15.07;6.25;;;18.20;66.40;;;;;;5046308;28;20444;-62
2022/01/03 08:15:19;;;;;;;21.50;7.60;;;18.20;66.60;;;;;;5045562;28;20477;-62
2022/01/03 08:17:46;;;;;;;18.80;7.18;;;18.20;66.50;;;;;;5041592;28;20060;-62
2022/01/03 08:20:12;;;;;;;16.27;6.47;;;18.20;66.60;;;;;;5045966;28;20040;-61
2022/01/03 08:22:38;;;;;;;12.80;6.15;;;18.20;66.60;;;;;;5046774;28;20516;-62
2022/01/03 08:25:03;;;;;;;12.50;5.60;;;18.20;66.50;;;;;;5046721;28;20029;-63
2022/01/03 08:27:29;;;;;;;14.45;6.95;;;18.20;66.50;;;;;;5047489;28;20029;-62
2022/01/03 08:29:55;;;;;;;14.25;5.50;;;18.20;66.40;;;;;;5045959;28;20039;-63
2022/01/03 08:32:21;;;;;;;16.75;5.72;;;18.20;66.40;;;;;;5046563;28;20039;-62
2022/01/03 08:34:46;;;;;;;14.25;5.25;;;18.20;66.40;;;;;;5046554;28;20637;-62
2022/01/03 08:37:12;;;;;;;15.65;6.28;;;18.20;66.40;;;;;;5045131;28;20090;-61
2022/01/03 08:39:37;;;;;;;11.43;4.82;;;18.20;66.50;;;;;;5044903;28;20025;-62
2022/01/03 08:42:03;;;;;;;14.27;5.55;;;18.20;66.50;;;;;;5045550;28;20389;-62
2022/01/03 08:44:29;;;;;;;14.20;5.25;;;18.20;66.40;;;;;;5045906;28;20451;-62
2022/01/03 08:46:54;;;;;;;11.70;4.78;;;18.20;66.40;;;;;;5046967;28;20021;-64
2022/01/03 08:49:19;;;;;;;11.48;4.70;;;18.20;66.30;;;;;;5045203;28;20036;-62
2022/01/03 08:51:45;;;;;;;12.32;5.57;;;18.20;66.30;;;;;;5045864;28;20388;-62
2022/01/03 08:54:11;;;;;;;12.40;4.72;;;18.20;66.30;;;;;;5045822;28;20099;-62
2022/01/03 08:56:37;;;;;;;9.82;4.32;;;18.10;66.30;;;;;;5044529;28;20104;-62
2022/01/03 08:59:03;;;;;;;13.90;4.43;;;18.20;66.20;;;;;;5044508;28;20029;-62
2022/01/03 09:01:28;;;;;;;11.43;4.75;;;18.20;66.30;;;;;;5044951;28;20032;-62
2022/01/03 09:03:54;;;;;;;10.48;3.47;;;18.10;66.10;;;;;;5045303;28;20649;-62
2022/01/03 09:06:19;;;;;;;9.32;4.07;;;18.10;66.10;;;;;;5044877;28;21597;-62
2022/01/03 09:08:45;;;;;;;11.27;4.80;;;18.20;66.20;;;;;;5044588;28;20090;-62
2022/01/03 09:11:11;;;;;;;9.57;4.10;;;18.20;66.20;;;;;;5044761;28;20029;-61
2022/01/03 09:13:37;;;;;;;8.57;3.40;;;18.10;66.10;;;;;;5044427;28;20070;-62
2022/01/03 09:16:06;;;;;;;13.02;4.30;;;18.20;66.10;;;;;;5044149;28;20025;-62
2022/01/03 09:18:32;;;;;;;9.68;3.60;;;18.10;66.00;;;;;;5035860;28;20477;-62
2022/01/03 09:20:57;;;;;;;8.65;4.13;;;18.10;66.10;;;;;;5044636;28;20032;-62
2022/01/03 09:23:27;;;;;;;6.20;3.47;;;18.20;65.90;;;;;;5044461;28;20041;-62
2022/01/03 09:28:56;;;;;;;8.30;4.47;;;18.20;65.90;;;;;;5014289;28;20112;-62
2022/01/03 09:31:31;;;;;;;9.90;3.38;;;18.10;65.90;;;;;;5044659;28;20730;-62
2022/01/03 09:33:58;;;;;;;7.13;3.17;;;18.20;65.80;;;;;;5044156;28;20025;-62
2022/01/03 09:36:24;;;;;;;7.63;3.00;;;18.20;65.80;;;;;;5044459;28;20116;-62
2022/01/03 09:38:50;;;;;;;5.90;3.05;;;18.20;65.70;;;;;;5043479;28;20489;-62
2022/01/03 09:41:18;;;;;;;7.65;2.83;;;18.20;65.70;;;;;;5044637;28;20511;-62
2022/01/03 09:43:56;;;;;;;7.25;3.20;;;18.20;65.60;;;;;;5043529;28;20025;-62
2022/01/03 09:46:23;;;;;;;6.78;3.92;;;18.20;65.60;;;;;;5041767;28;20722;-62
2022/01/03 09:48:52;;;;;;;6.93;3.65;;;18.20;65.50;;;;;;5043347;28;20108;-62
2022/01/03 09:51:22;;;;;;;5.38;2.67;;;18.20;65.50;;;;;;5044237;28;20017;-62
2022/01/03 09:53:48;;;;;;;7.97;3.00;;;18.20;65.50;;;;;;5044221;28;20017;-62
2022/01/03 09:56:14;;;;;;;7.13;3.22;;;18.20;65.40;;;;;;5043710;28;20027;-62
2022/01/03 09:58:39;;;;;;;5.68;2.88;;;18.20;65.30;;;;;;5041546;28;20115;-62
2022/01/03 10:01:05;;;;;;;6.82;2.72;;;18.20;65.30;;;;;;5025664;28;20447;-62
2022/01/03 10:03:30;;;;;;;5.30;2.67;;;18.20;65.40;;;;;;5043874;28;20025;-62
2022/01/03 10:05:56;;;;;;;5.30;2.58;;;18.20;65.30;;;;;;5043703;28;20032;-63
2022/01/03 10:08:21;;;;;;;8.05;2.92;;;18.20;65.20;;;;;;5044400;28;20479;-62
2022/01/03 10:10:47;;;;;;;6.05;2.45;;;18.20;65.20;;;;;;5043811;28;20066;-62
2022/01/03 10:13:14;;;;;;;4.28;2.17;;;18.20;65.10;;;;;;5023551;28;20025;-62
2022/01/03 10:15:40;;;;;;;5.78;2.58;;;18.20;65.10;;;;;;5043630;28;20075;-62
2022/01/03 10:18:06;;;;;;;4.13;2.67;;;18.20;65.10;;;;;;5043535;28;20029;-62
2022/01/03 10:20:34;;;;;;;5.72;2.30;;;18.20;65.00;;;;;;5043347;28;20086;-62
2022/01/03 10:23:09;;;;;;;7.85;2.97;;;18.20;65.00;;;;;;5026173;28;20536;-62
2022/01/03 10:25:35;;;;;;;;;;;18.20;64.90;;;;;;5042992;28;20037;-62
2022/01/03 10:28:01;;;;;;;4.85;2.53;;;18.20;64.90;;;;;;5043889;28;19908;-62
2022/01/03 10:30:56;;;;;;;3.25;2.15;;;18.20;64.90;;;;;;5043846;28;20583;-63
2022/01/03 10:33:23;;;;;;;3.92;1.90;;;18.20;64.80;;;;;;5024197;28;20036;-62
2022/01/03 10:35:53;;;;;;;3.65;2.03;;;18.20;64.80;;;;;;5043573;28;20084;-62
2022/01/03 10:38:36;;;;;;;6.72;2.10;;;18.20;64.80;;;;;;5043394;28;20036;-62
2022/01/03 10:41:27;;;;;;;3.22;1.88;;;18.20;64.80;;;;;;5039191;28;20151;-62
2022/01/03 10:43:55;;;;;;;5.65;2.83;;;18.20;64.70;;;;;;5029404;28;20028;-62
2022/01/03 10:46:30;;;;;;;6.00;1.90;;;18.20;64.80;;;;;;5043561;28;20036;-62
2022/01/03 10:49:08;;;;;;;5.22;1.92;;;18.20;64.70;;;;;;5031633;28;20032;-62
2022/01/03 10:51:34;;;;;;;3.67;1.77;;;18.20;64.80;;;;;;5043033;28;20437;-62
2022/01/03 10:54:00;;;;;;;6.82;2.33;;;18.20;65.10;;;;;;5042644;28;20025;-63
2022/01/03 10:56:48;;;;;;;6.78;2.10;;;18.20;65.20;;;;;;5025765;28;20128;-62
2022/01/03 10:59:14;;;;;;;5.72;2.00;;;18.20;65.50;;;;;;5042256;28;20021;-62
2022/01/03 11:01:40;;;;;;;5.00;2.13;;;18.20;65.60;;;;;;5042992;28;20031;-61
2022/01/03 11:04:05;;;;;;;5.05;1.88;;;18.20;65.80;;;;;;5043178;28;20029;-63
2022/01/03 11:11:45;;;;;;;3.70;1.67;;;18.20;65.90;;;;;;5041120;28;20440;-62
2022/01/03 11:14:30;;;;;;;5.28;1.48;;;18.20;65.80;;;;;;5042299;28;20377;-62
2022/01/03 11:16:55;;;;;;;4.05;1.77;;;18.20;65.90;;;;;;5045807;28;20087;-62
2022/01/03 11:19:39;;;;;;;5.63;1.77;;;18.30;66.00;;;;;;5042614;28;20513;-63
2022/01/03 11:22:05;;;;;;;3.97;2.20;;;18.20;65.90;;;;;;5039667;28;20584;-63
2022/01/03 11:24:31;;;;;;;5.13;1.45;;;18.20;65.90;;;;;;5043213;28;20485;-63
2022/01/03 11:26:56;;;;;;;3.17;1.65;;;18.20;66.00;;;;;;5043397;28;20025;-64
2022/01/03 11:29:22;;;;;;;4.22;1.58;;;18.30;66.10;;;;;;5041656;28;20393;-62
2022/01/03 11:31:50;;;;;;;3.47;1.63;;;18.30;66.00;;;;;;5022198;28;20040;-63
2022/01/03 11:34:15;;;;;;;7.82;2.13;;;18.30;66.00;;;;;;5040332;28;20512;-62
2022/01/03 11:36:41;;;;;;;4.10;1.35;;;18.30;66.10;;;;;;5041844;28;20029;-62
2022/01/03 11:39:08;;;;;;;3.08;1.48;;;18.30;66.00;;;;;;5042985;28;20481;-62
2022/01/03 11:41:37;;;;;;;3.10;1.70;;;18.30;65.90;;;;;;5042396;28;20083;-62
2022/01/03 11:44:03;;;;;;;3.33;1.92;;;18.30;65.90;;;;;;5043114;28;20751;-62
2022/01/03 11:46:29;;;;;;;2.22;1.40;;;18.30;66.00;;;;;;5041682;28;20052;-63
2022/01/03 11:48:55;;;;;;;3.95;1.58;;;18.30;66.00;;;;;;5036351;28;20285;-62
2022/01/03 11:51:20;;;;;;;2.88;1.63;;;18.30;65.90;;;;;;5041279;28;20029;-63
2022/01/03 11:53:49;;;;;;;2.97;1.40;;;18.30;65.90;;;;;;5021707;28;20045;-63
2022/01/03 11:56:25;;;;;;;1.83;1.05;;;18.30;65.90;;;;;;5039420;28;20075;-62
2022/01/03 11:59:07;;;;;;;4.57;1.42;;;18.30;65.90;;;;;;5033970;28;20021;-62
2022/01/03 12:04:35;;;;;;;3.65;1.33;;;18.30;65.90;;;;;;5041836;28;20044;-63
2022/01/03 12:07:07;;;;;;;6.57;1.67;;;18.30;65.90;;;;;;5040802;28;20473;-63
2022/01/03 12:09:34;;;;;;;2.50;1.30;;;18.30;65.90;;;;;;5041962;28;20033;-63
2022/01/03 12:12:00;;;;;;;3.45;1.38;;;18.30;65.90;;;;;;5042549;28;20106;-64
2022/01/03 12:14:59;;;;;;;2.22;1.45;;;18.30;65.90;;;;;;5041261;28;20493;-63
2022/01/03 12:17:39;;;;;;;2.55;1.25;;;18.30;65.90;;;;;;5019055;28;20032;-62
2022/01/03 12:20:06;;;;;;;3.28;1.45;;;18.30;65.90;;;;;;5025406;28;20477;-63
2022/01/03 12:22:34;;;;;;;2.35;1.17;;;18.30;65.90;;;;;;5042936;28;20040;-63
2022/01/03 12:25:03;;;;;;;4.13;1.52;;;18.30;65.90;;;;;;5026897;28;20433;-63
2022/01/03 12:27:31;;;;;;;3.08;1.30;;;18.30;65.90;;;;;;5044959;28;20102;-63
2022/01/03 12:29:56;;;;;;;4.43;2.03;;;18.30;66.00;;;;;;5046207;28;20025;-62
2022/01/03 12:32:32;;;;;;;2.13;1.20;;;18.30;66.00;;;;;;5039440;28;20067;-63
2022/01/03 12:35:16;;;;;;;4.80;1.30;;;18.30;65.90;;;;;;5010722;28;20534;-63
2022/01/03 12:37:50;;;;;;;3.33;1.70;;;18.30;65.90;;;;;;5050856;28;20029;-63
2022/01/03 12:40:18;;;;;;;3.85;1.38;;;18.30;65.90;;;;;;5044639;28;20650;-63
2022/01/03 12:42:48;;;;;;;1.58;1.00;;;18.30;65.80;;;;;;5045507;28;20033;-63
2022/01/03 12:45:14;;;;;;;2.83;1.73;;;18.30;65.80;;;;;;5045654;28;20029;-63
2022/01/03 12:47:40;;;;;;;2.05;1.00;;;18.30;65.80;;;;;;5044374;28;20044;-63
2022/01/03 12:50:27;;;;;;;2.58;1.35;;;18.40;65.80;;;;;;5044169;28;20029;-63
2022/01/03 12:52:54;;;;;;;2.47;1.30;;;18.40;65.80;;;;;;5045712;28;20080;-62
2022/01/03 12:55:38;;;;;;;2.20;1.30;;;18.40;65.70;;;;;;5045526;28;20064;-62
2022/01/03 12:58:14;;;;;;;3.55;1.38;;;18.40;65.80;;;;;;5044939;28;20029;-63
2022/01/03 13:00:41;;;;;;;2.63;0.98;;;18.40;65.70;;;;;;5023693;28;20040;-63
2022/01/03 13:03:47;;;;;;;1.55;0.82;;;18.40;65.70;;;;;;5045015;28;20060;-62
2022/01/03 13:06:19;;;;;;;3.25;1.45;;;18.40;65.80;;;;;;5036278;28;20033;-63
2022/01/03 13:08:48;;;;;;;4.28;1.63;;;18.40;65.70;;;;;;5044703;28;20112;-62